createdAt,value
2023-01-12T00:01:45.001Z,11.57
2023-01-12T00:04:21.653Z,10.38
2023-01-12T00:06:59.251Z,13.18
2023-01-12T00:09:44.026Z,13.02
2023-01-12T00:12:22.707Z,13.77
2023-01-12T00:15:06.116Z,18.52
2023-01-12T00:17:39.708Z,17.20
2023-01-12T00:20:25.650Z,14.13
2023-01-12T00:23:08.277Z,13.98
2023-01-12T00:25:56.929Z,13.50
2023-01-12T00:28:32.753Z,17.12
2023-01-12T00:31:16.961Z,16.85
2023-01-12T00:33:53.809Z,20.52
2023-01-12T00:36:34.702Z,11.52
2023-01-12T00:39:18.965Z,14.40
2023-01-12T00:45:34.073Z,13.07
2023-01-12T00:48:21.155Z,14.70
2023-01-12T00:50:58.195Z,12.43
2023-01-12T00:53:28.848Z,13.13
2023-01-12T00:56:13.601Z,26.35
2023-01-12T00:58:53.809Z,16.15
2023-01-12T01:01:29.230Z,16.10
2023-01-12T01:04:01.995Z,15.98
2023-01-12T01:06:34.501Z,16.93
2023-01-12T01:09:17.065Z,12.75
2023-01-12T01:11:49.514Z,11.25
2023-01-12T01:14:21.477Z,12.10
2023-01-12T01:16:57.778Z,10.50
2023-01-12T01:19:34.075Z,10.82
2023-01-12T01:25:39.971Z,13.05
2023-01-12T01:31:32.339Z,14.02
2023-01-12T01:37:37.825Z,11.50
2023-01-12T01:44:09.787Z,14.45
2023-01-12T01:50:24.269Z,16.87
2023-01-12T01:56:33.653Z,21.37
2023-01-12T01:59:17.797Z,26.10
2023-01-12T02:05:02.818Z,26.37
2023-01-12T02:07:43.591Z,34.67
2023-01-12T02:10:20.903Z,31.75
2023-01-12T02:13:18.964Z,24.00
2023-01-12T02:16:33.072Z,24.90
2023-01-12T02:23:19.609Z,32.97
2023-01-12T02:26:27.685Z,29.42
2023-01-12T02:29:40.813Z,26.33
2023-01-12T02:32:52.653Z,34.15
2023-01-12T02:36:09.961Z,30.42
2023-01-12T02:45:45.699Z,30.12
2023-01-12T02:48:58.861Z,30.12
2023-01-12T02:51:56.291Z,28.70
2023-01-12T02:54:32.788Z,25.80
2023-01-12T02:57:10.672Z,33.72
2023-01-12T02:59:53.384Z,31.20
2023-01-12T03:02:34.219Z,25.10
2023-01-12T03:05:25.232Z,27.80
2023-01-12T03:08:06.584Z,32.10
2023-01-12T03:14:26.948Z,27.58
2023-01-12T03:16:57.298Z,27.02
2023-01-12T03:19:45.687Z,28.80
2023-01-12T03:22:23.194Z,25.62
2023-01-12T03:25:07.020Z,22.17
2023-01-12T03:27:56.345Z,18.65
2023-01-12T03:37:02.177Z,13.82
2023-01-12T03:39:51.482Z,13.40
2023-01-12T03:43:04.869Z,18.27
2023-01-12T03:49:18.834Z,17.80
2023-01-12T03:51:58.908Z,16.52
2023-01-12T03:54:41.826Z,16.92
2023-01-12T03:57:20.836Z,15.48
2023-01-12T03:59:57.665Z,19.17
2023-01-12T04:02:37.603Z,20.10
2023-01-12T04:05:21.114Z,18.08
2023-01-12T04:07:59.362Z,14.32
2023-01-12T04:10:38.580Z,19.85
2023-01-12T04:13:17.843Z,19.95
2023-01-12T04:16:00.660Z,17.80
2023-01-12T04:18:34.041Z,17.80
2023-01-12T04:21:34.643Z,22.37
2023-01-12T04:24:17.475Z,16.10
2023-01-12T04:27:00.494Z,20.58
2023-01-12T04:29:39.569Z,17.60
2023-01-12T04:32:08.882Z,24.33
2023-01-12T04:34:48.355Z,17.60
2023-01-12T04:37:32.809Z,19.35
2023-01-12T04:40:08.364Z,20.73
2023-01-12T04:43:02.205Z,22.62
2023-01-12T04:49:08.154Z,17.42
2023-01-12T04:51:40.152Z,16.27
2023-01-12T04:54:18.303Z,18.50
2023-01-12T05:00:28.520Z,20.73
2023-01-12T05:03:08.492Z,22.15
2023-01-12T05:05:47.215Z,20.37
2023-01-12T05:08:40.417Z,22.27
2023-01-12T05:11:13.619Z,29.05
2023-01-12T05:13:55.954Z,21.87
2023-01-12T05:16:34.208Z,22.80
2023-01-12T05:19:14.622Z,28.20
2023-01-12T05:21:46.944Z,22.02
2023-01-12T05:24:22.536Z,22.42
2023-01-12T05:26:53.509Z,22.33
2023-01-12T05:29:41.201Z,23.80
2023-01-12T05:32:13.307Z,19.30
2023-01-12T05:34:47.206Z,25.30
2023-01-12T05:37:26.637Z,21.52
2023-01-12T05:40:07.428Z,31.35
2023-01-12T05:43:00.898Z,24.15
2023-01-12T05:45:45.678Z,25.52
2023-01-12T05:48:27.974Z,26.87
2023-01-12T05:51:09.996Z,21.75
2023-01-12T05:53:47.819Z,20.55
2023-01-12T05:56:34.898Z,21.25
2023-01-12T05:59:11.596Z,22.23
2023-01-12T06:01:49.588Z,35.40
2023-01-12T06:04:35.354Z,34.05
2023-01-12T06:07:18.478Z,23.58
2023-01-12T06:10:00.554Z,18.15
2023-01-12T06:12:52.420Z,22.98
2023-01-12T06:15:31.828Z,20.35
2023-01-12T06:18:15.957Z,17.05
2023-01-12T06:20:51.491Z,19.15
2023-01-12T06:23:35.254Z,19.45
2023-01-12T06:26:13.624Z,18.40
2023-01-12T06:28:59.388Z,20.62
2023-01-12T06:31:54.047Z,20.77
2023-01-12T06:34:37.501Z,15.75
2023-01-12T06:37:25.175Z,18.48
2023-01-12T06:40:09.006Z,17.05
2023-01-12T06:42:48.841Z,13.43
2023-01-12T06:45:27.012Z,20.52
2023-01-12T06:48:12.656Z,22.62
2023-01-12T06:50:58.521Z,21.12
2023-01-12T06:53:37.813Z,19.45
2023-01-12T06:56:14.416Z,22.70
2023-01-12T06:59:00.316Z,27.83
2023-01-12T07:01:43.301Z,31.65
2023-01-12T07:07:33.749Z,52.72
2023-01-12T07:10:21.617Z,48.97
2023-01-12T07:12:54.538Z,31.12
2023-01-12T07:15:31.222Z,33.90
2023-01-12T07:18:08.441Z,32.60
2023-01-12T07:20:47.776Z,29.00
2023-01-12T07:23:26.217Z,34.05
2023-01-12T07:26:11.106Z,31.83
2023-01-12T07:28:44.105Z,27.42
2023-01-12T07:31:19.562Z,24.98
2023-01-12T07:33:57.073Z,31.52
2023-01-12T07:42:22.604Z,26.73
2023-01-12T07:44:57.614Z,29.47
2023-01-12T07:47:31.214Z,30.52
2023-01-12T07:50:02.336Z,23.58
2023-01-12T07:55:08.067Z,20.85
2023-01-12T07:57:40.588Z,33.58
2023-01-12T08:00:19.035Z,20.05
2023-01-12T08:02:53.933Z,22.40
2023-01-12T08:05:27.507Z,19.30
2023-01-12T08:08:03.426Z,23.48
2023-01-12T08:10:35.376Z,28.23
2023-01-12T08:13:41.445Z,22.35
2023-01-12T08:16:22.676Z,26.60
2023-01-12T08:19:04.410Z,20.98
2023-01-12T08:21:45.452Z,25.95
2023-01-12T08:24:23.403Z,29.37
2023-01-12T08:26:59.370Z,23.40
2023-01-12T08:29:45.662Z,23.65
2023-01-12T08:32:18.904Z,28.25
2023-01-12T08:34:54.948Z,31.40
2023-01-12T08:37:36.322Z,28.33
2023-01-12T08:40:18.473Z,28.70
2023-01-12T08:42:51.618Z,29.15
2023-01-12T08:45:22.928Z,27.83
2023-01-12T08:47:52.143Z,29.58
2023-01-12T08:50:32.613Z,24.52
2023-01-12T08:53:06.444Z,26.98
2023-01-12T08:55:37.151Z,30.70
2023-01-12T08:58:13.640Z,29.45
2023-01-12T09:03:49.903Z,26.95
2023-01-12T09:06:37.473Z,23.83
2023-01-12T09:09:11.686Z,25.37
2023-01-12T09:11:48.150Z,25.40
2023-01-12T09:14:26.353Z,23.38
2023-01-12T09:17:09.608Z,27.40
2023-01-12T09:19:44.879Z,29.23
2023-01-12T09:22:19.590Z,26.33
2023-01-12T09:24:50.917Z,21.25
2023-01-12T09:27:26.217Z,25.05
2023-01-12T09:30:00.370Z,23.83
2023-01-12T09:32:36.711Z,17.48
2023-01-12T09:38:21.489Z,19.98
2023-01-12T09:41:02.893Z,17.40
2023-01-12T09:43:52.455Z,13.85
2023-01-12T09:46:57.222Z,12.52
2023-01-12T09:49:47.223Z,12.80
2023-01-12T09:55:23.819Z,11.98
2023-01-12T09:58:29.066Z,12.13
2023-01-12T10:01:05.028Z,13.27
2023-01-12T10:03:41.074Z,19.90
2023-01-12T10:06:27.317Z,17.17
2023-01-12T10:09:06.083Z,13.98
2023-01-12T10:12:14.442Z,14.13
2023-01-12T10:15:03.188Z,15.02
2023-01-12T10:17:51.287Z,17.02
2023-01-12T10:20:52.389Z,17.70
2023-01-12T10:23:27.675Z,14.63
2023-01-12T10:26:16.696Z,15.15
2023-01-12T10:28:55.158Z,13.25
2023-01-12T10:31:31.432Z,18.98
2023-01-12T10:34:03.691Z,19.80
2023-01-12T10:36:37.499Z,14.70
2023-01-12T10:39:34.905Z,15.75
2023-01-12T10:42:44.387Z,19.05
2023-01-12T10:45:25.278Z,26.43
2023-01-12T10:47:54.227Z,18.17
2023-01-12T10:50:46.161Z,26.08
2023-01-12T10:53:26.280Z,25.20
2023-01-12T10:56:05.196Z,17.87
2023-01-12T10:58:47.038Z,17.67
2023-01-12T11:01:17.625Z,16.98
2023-01-12T11:03:48.744Z,14.00
2023-01-12T11:06:42.921Z,14.52
2023-01-12T11:09:20.096Z,16.90
2023-01-12T11:11:57.130Z,22.15
2023-01-12T11:14:38.809Z,20.27
2023-01-12T11:17:31.199Z,17.17
2023-01-12T11:20:09.524Z,16.27
2023-01-12T11:22:58.561Z,25.08
2023-01-12T11:25:43.610Z,21.73
2023-01-12T11:28:37.658Z,19.50
2023-01-12T11:32:03.843Z,23.98
2023-01-12T11:34:49.837Z,19.55
2023-01-12T11:37:27.695Z,15.80
2023-01-12T11:40:08.678Z,25.15
2023-01-12T11:43:05.547Z,18.90
2023-01-12T11:46:02.367Z,21.25
2023-01-12T11:48:52.099Z,22.23
2023-01-12T11:58:15.949Z,22.95
2023-01-12T12:01:08.032Z,23.42
2023-01-12T12:04:08.843Z,17.48
2023-01-12T12:07:08.926Z,46.80
2023-01-12T12:12:58.335Z,25.50
2023-01-12T12:15:51.002Z,22.90
2023-01-12T12:18:33.588Z,23.48
2023-01-12T12:21:40.590Z,28.17
2023-01-12T12:24:47.406Z,24.65
2023-01-12T12:27:45.413Z,26.17
2023-01-12T12:30:58.315Z,28.83
2023-01-12T12:33:54.383Z,24.37
2023-01-12T12:36:48.143Z,23.02
2023-01-12T12:39:40.174Z,21.42
2023-01-12T12:42:41.549Z,16.42
2023-01-12T12:45:42.399Z,23.08
2023-01-12T12:48:40.250Z,20.48
2023-01-12T12:51:17.728Z,23.02
2023-01-12T12:53:57.392Z,22.95
2023-01-12T12:56:35.003Z,22.85
2023-01-12T12:59:08.237Z,20.35
2023-01-12T13:01:43.798Z,28.02
2023-01-12T13:04:14.820Z,22.98
2023-01-12T13:06:50.505Z,26.80
2023-01-12T13:09:17.964Z,21.73
2023-01-12T13:12:21.209Z,26.30
2023-01-12T13:15:22.711Z,25.98
2023-01-12T13:17:55.961Z,29.70
2023-01-12T13:20:55.379Z,24.08
2023-01-12T13:23:54.966Z,19.05
2023-01-12T13:26:46.796Z,24.98
2023-01-12T13:29:34.024Z,21.95
2023-01-12T13:32:34.530Z,21.33
2023-01-12T13:35:10.913Z,17.12
2023-01-12T13:37:54.425Z,17.50
2023-01-12T13:43:21.799Z,19.58
2023-01-12T13:46:17.247Z,14.95
2023-01-12T13:48:52.401Z,13.77
2023-01-12T13:51:49.098Z,15.70
2023-01-12T13:54:28.437Z,16.10
2023-01-12T13:57:23.494Z,11.77
2023-01-12T14:00:21.298Z,18.35
2023-01-12T14:02:59.194Z,20.27
2023-01-12T14:06:07.684Z,17.23
2023-01-12T14:09:37.033Z,15.45
2023-01-12T14:12:35.562Z,16.90
2023-01-12T14:16:05.819Z,16.55
2023-01-12T14:18:47.510Z,12.52
2023-01-12T14:21:29.382Z,20.23
2023-01-12T14:24:25.378Z,17.25
2023-01-12T14:27:22.007Z,19.05
2023-01-12T14:29:54.379Z,13.95
2023-01-12T14:32:35.520Z,14.15
2023-01-12T14:35:12.561Z,14.18
2023-01-12T14:37:48.263Z,14.23
2023-01-12T14:40:39.508Z,15.77
2023-01-12T14:43:36.625Z,13.60
2023-01-12T14:46:26.023Z,12.82
2023-01-12T14:49:12.653Z,13.95
2023-01-12T14:55:17.843Z,24.05
2023-01-12T14:58:11.293Z,29.30
2023-01-12T15:03:49.151Z,30.05
2023-01-12T15:06:30.676Z,30.15
2023-01-12T15:09:05.073Z,36.67
2023-01-12T15:11:44.442Z,33.22
2023-01-12T15:14:35.186Z,29.65
2023-01-12T15:17:30.682Z,30.67
2023-01-12T15:20:23.469Z,38.35
2023-01-12T15:26:39.027Z,31.60
2023-01-12T15:29:22.453Z,31.95
2023-01-12T15:32:01.404Z,35.17
2023-01-12T15:34:48.013Z,35.50
2023-01-12T15:37:20.362Z,43.72
2023-01-12T15:39:55.145Z,41.47
2023-01-12T15:42:30.960Z,28.10
2023-01-12T15:45:47.698Z,33.03
2023-01-12T15:48:30.274Z,30.58
2023-01-12T15:55:00.590Z,32.95
2023-01-12T16:00:31.131Z,28.58
2023-01-12T16:10:05.719Z,35.35
2023-01-12T16:12:50.715Z,55.67
2023-01-12T16:15:36.957Z,45.33
2023-01-12T16:21:55.414Z,32.72
2023-01-12T16:28:09.245Z,32.97
2023-01-12T16:30:53.756Z,27.90
2023-01-12T16:33:31.759Z,32.78
2023-01-12T16:36:13.005Z,36.67
2023-01-12T16:38:49.567Z,34.83
2023-01-12T16:41:24.493Z,39.35
2023-01-12T16:44:02.461Z,29.52
2023-01-12T16:46:43.633Z,37.40
2023-01-12T16:49:21.359Z,38.55
2023-01-12T16:52:02.362Z,37.28
2023-01-12T16:54:34.496Z,40.65
2023-01-12T16:57:28.729Z,45.97
2023-01-12T17:00:13.611Z,38.47
2023-01-12T17:03:01.401Z,36.97
2023-01-12T17:05:54.143Z,35.97
2023-01-12T17:08:37.484Z,37.58
2023-01-12T17:11:16.427Z,41.72
2023-01-12T17:14:05.357Z,41.05
2023-01-12T17:16:58.907Z,40.03
2023-01-12T17:23:06.292Z,43.38
2023-01-12T17:29:34.263Z,52.47
2023-01-12T17:35:46.520Z,38.70
2023-01-12T17:38:29.961Z,40.15
2023-01-12T17:44:43.743Z,67.35
2023-01-12T17:47:20.660Z,47.97
2023-01-12T17:49:58.892Z,46.97
2023-01-12T17:52:38.351Z,48.28
2023-01-12T17:55:14.513Z,44.47
2023-01-12T18:01:19.184Z,49.15
2023-01-12T18:04:13.317Z,41.35
2023-01-12T18:06:48.831Z,43.03
2023-01-12T18:09:36.919Z,56.47
2023-01-12T18:12:10.524Z,43.92
2023-01-12T18:14:55.764Z,37.38
2023-01-12T18:17:32.184Z,43.08
2023-01-12T18:23:40.818Z,30.62
2023-01-12T18:29:33.999Z,18.12
2023-01-12T18:35:51.986Z,15.43
2023-01-12T18:38:30.472Z,17.70
2023-01-12T18:41:30.086Z,17.80
2023-01-12T18:44:10.514Z,15.43
2023-01-12T18:47:04.874Z,19.50
2023-01-12T18:49:42.300Z,21.92
2023-01-12T18:52:40.139Z,18.17
2023-01-12T18:55:14.676Z,17.83
2023-01-12T18:57:52.809Z,16.42
2023-01-12T19:00:34.165Z,17.95
2023-01-12T19:03:10.929Z,16.12
2023-01-12T19:06:02.833Z,17.35
2023-01-12T19:08:53.763Z,17.55
2023-01-12T19:11:33.049Z,16.20
2023-01-12T19:14:27.081Z,17.60
2023-01-12T19:17:21.017Z,29.75
2023-01-12T19:27:21.199Z,29.63
2023-01-12T19:33:18.561Z,20.58
2023-01-12T19:35:48.791Z,33.05
2023-01-12T19:41:38.607Z,26.17
2023-01-12T19:44:14.580Z,23.05
2023-01-12T19:46:58.952Z,21.83
2023-01-12T19:49:35.471Z,27.52
2023-01-12T19:52:14.214Z,33.88
2023-01-12T19:54:45.972Z,35.30
2023-01-12T19:57:25.278Z,32.75
2023-01-12T20:00:00.045Z,36.72
2023-01-12T20:02:38.663Z,25.75
2023-01-12T20:05:35.526Z,26.10
2023-01-12T20:08:18.347Z,23.23
2023-01-12T20:11:04.037Z,20.90
2023-01-12T20:17:27.471Z,24.60
2023-01-12T20:27:12.925Z,23.05
2023-01-12T20:33:12.677Z,23.40
2023-01-12T20:35:54.013Z,26.48
2023-01-12T20:38:27.961Z,24.55
2023-01-12T20:41:08.799Z,27.92
2023-01-12T20:43:44.280Z,28.33
2023-01-12T20:46:24.941Z,27.95
2023-01-12T20:49:07.248Z,27.90
2023-01-12T20:51:44.724Z,32.20
2023-01-12T20:54:23.847Z,36.38
2023-01-12T20:57:09.655Z,57.13
2023-01-12T20:59:49.832Z,40.08
2023-01-12T21:02:27.492Z,42.63
2023-01-12T21:05:07.649Z,44.35
2023-01-12T21:07:56.988Z,41.70
2023-01-12T21:10:45.280Z,32.95
2023-01-12T21:13:26.256Z,33.58
2023-01-12T21:16:11.424Z,29.25
2023-01-12T21:18:59.127Z,33.90
2023-01-12T21:21:41.567Z,28.58
2023-01-12T21:27:53.159Z,32.92
2023-01-12T21:33:54.173Z,32.28
2023-01-12T21:36:35.536Z,32.13
2023-01-12T21:39:09.307Z,32.58
2023-01-12T21:42:07.917Z,28.27
2023-01-12T21:44:53.200Z,31.65
2023-01-12T21:47:40.205Z,35.13
2023-01-12T21:50:30.656Z,34.42
2023-01-12T21:53:15.553Z,26.10
2023-01-12T21:56:00.251Z,25.85
2023-01-12T22:02:14.676Z,19.12
2023-01-12T22:05:00.125Z,22.67
2023-01-12T22:07:47.183Z,23.48
2023-01-12T22:10:32.977Z,21.58
2023-01-12T22:13:14.010Z,20.15
2023-01-12T22:16:02.720Z,26.48
2023-01-12T22:18:41.664Z,19.55
2023-01-12T22:28:27.863Z,28.10
2023-01-12T22:31:21.369Z,26.05
2023-01-12T22:34:08.273Z,27.33
2023-01-12T22:36:47.872Z,28.73
2023-01-12T22:39:20.728Z,32.75
2023-01-12T22:42:00.352Z,37.88
2023-01-12T22:44:38.823Z,39.92
2023-01-12T22:47:24.351Z,31.08
2023-01-12T22:50:03.742Z,33.15
2023-01-12T22:56:18.988Z,30.67
2023-01-12T23:02:51.022Z,26.52
2023-01-12T23:05:31.240Z,26.58
2023-01-12T23:08:12.297Z,28.20
2023-01-12T23:14:15.713Z,26.75
2023-01-12T23:16:59.326Z,24.35
2023-01-12T23:19:37.308Z,18.90
2023-01-12T23:22:16.378Z,20.92
2023-01-12T23:24:55.254Z,21.65
2023-01-12T23:27:39.779Z,22.45
2023-01-12T23:30:20.014Z,28.10
2023-01-12T23:33:00.835Z,20.95
2023-01-12T23:35:48.576Z,23.17
2023-01-12T23:38:26.568Z,22.42
2023-01-12T23:40:59.820Z,24.58
2023-01-12T23:43:40.441Z,26.27
2023-01-12T23:49:16.138Z,39.10
2023-01-12T23:51:53.659Z,30.20
2023-01-12T23:54:28.476Z,35.33
2023-01-12T23:57:27.334Z,30.95
